createdAt,value
2019-02-06T00:00:55.849Z,2.40
2019-02-06T00:03:25.520Z,2.30
2019-02-06T00:05:55.147Z,2.30
2019-02-06T00:08:24.739Z,2.30
2019-02-06T00:10:54.260Z,2.30
2019-02-06T00:13:24.000Z,2.30
2019-02-06T00:15:53.858Z,2.20
2019-02-06T00:18:23.637Z,2.30
2019-02-06T00:20:53.547Z,2.20
2019-02-06T00:23:23.058Z,2.20
2019-02-06T00:25:52.598Z,2.20
2019-02-06T00:28:22.144Z,2.20
2019-02-06T00:30:52.185Z,2.30
2019-02-06T00:33:21.816Z,2.30
2019-02-06T00:35:51.365Z,2.20
2019-02-06T00:38:20.985Z,2.20
2019-02-06T00:40:51.418Z,2.20
2019-02-06T00:43:21.130Z,2.20
2019-02-06T00:45:50.993Z,2.20
2019-02-06T00:48:20.684Z,2.30
2019-02-06T00:50:50.418Z,2.20
2019-02-06T00:53:20.521Z,2.20
2019-02-06T00:55:50.222Z,2.10
2019-02-06T00:58:20.099Z,2.10
2019-02-06T01:00:49.785Z,2.10
2019-02-06T01:03:19.444Z,2.10
2019-02-06T01:05:49.025Z,2.00
2019-02-06T01:08:18.795Z,2.00
2019-02-06T01:10:48.441Z,2.00
2019-02-06T01:13:18.305Z,2.00
2019-02-06T01:15:47.972Z,2.00
2019-02-06T01:18:17.480Z,2.00
2019-02-06T01:20:47.029Z,2.00
2019-02-06T01:23:16.589Z,2.00
2019-02-06T01:25:46.165Z,2.00
2019-02-06T01:28:15.671Z,2.00
2019-02-06T01:30:53.702Z,2.00
2019-02-06T01:33:24.046Z,2.00
2019-02-06T01:35:53.967Z,2.00
2019-02-06T01:38:23.502Z,1.90
2019-02-06T01:40:53.002Z,2.00
2019-02-06T01:43:23.005Z,1.90
2019-02-06T01:45:52.635Z,1.90
2019-02-06T01:48:22.266Z,1.90
2019-02-06T01:50:51.817Z,1.90
2019-02-06T01:53:21.425Z,1.80
2019-02-06T01:55:51.026Z,1.70
2019-02-06T01:58:20.909Z,1.70
2019-02-06T02:00:50.404Z,1.70
2019-02-06T02:03:19.937Z,1.80
2019-02-06T02:06:01.416Z,1.80
2019-02-06T02:08:21.262Z,1.90
2019-02-06T02:10:50.779Z,1.90
2019-02-06T02:13:20.538Z,2.00
2019-02-06T02:15:50.047Z,2.00
2019-02-06T02:18:19.571Z,2.00
2019-02-06T02:20:49.083Z,2.10
2019-02-06T02:23:18.681Z,2.20
2019-02-06T02:25:48.376Z,2.20
2019-02-06T02:28:18.155Z,2.20
2019-02-06T02:30:51.208Z,2.30
2019-02-06T02:33:23.317Z,2.30
2019-02-06T02:35:53.040Z,2.30
2019-02-06T02:38:22.745Z,2.30
2019-02-06T02:40:52.941Z,2.40
2019-02-06T02:43:22.436Z,2.40
2019-02-06T02:45:52.156Z,2.40
2019-02-06T02:48:21.738Z,2.40
2019-02-06T02:50:51.603Z,2.40
2019-02-06T02:53:21.517Z,2.40
2019-02-06T02:55:51.453Z,2.50
2019-02-06T02:58:21.129Z,2.40
2019-02-06T03:01:16.355Z,2.50
2019-02-06T03:04:05.013Z,2.50
2019-02-06T03:06:34.717Z,2.40
2019-02-06T03:09:07.057Z,2.50
2019-02-06T03:11:37.649Z,2.50
2019-02-06T03:14:07.340Z,2.50
2019-02-06T03:16:37.332Z,2.50
2019-02-06T03:19:06.944Z,2.50
2019-02-06T03:21:36.712Z,2.60
2019-02-06T03:24:06.871Z,2.60
2019-02-06T03:26:36.734Z,2.70
2019-02-06T03:29:06.487Z,2.70
2019-02-06T03:31:36.102Z,2.70
2019-02-06T03:34:06.192Z,2.80
2019-02-06T03:36:40.742Z,2.70
2019-02-06T03:39:09.705Z,2.70
2019-02-06T03:41:39.420Z,2.70
2019-02-06T03:44:09.397Z,2.70
2019-02-06T03:46:38.937Z,2.70
2019-02-06T03:49:08.869Z,2.60
2019-02-06T03:51:38.388Z,2.50
2019-02-06T03:54:07.937Z,2.50
2019-02-06T03:56:37.461Z,2.50
2019-02-06T03:59:07.743Z,2.50
2019-02-06T04:01:37.270Z,2.50
2019-02-06T04:04:06.868Z,2.50
2019-02-06T04:06:36.732Z,2.50
2019-02-06T04:09:09.096Z,2.50
2019-02-06T04:11:38.941Z,2.60
2019-02-06T04:14:09.292Z,2.60
2019-02-06T04:16:38.849Z,2.60
2019-02-06T04:19:08.355Z,2.70
2019-02-06T04:21:38.122Z,2.70
2019-02-06T04:24:07.643Z,2.70
2019-02-06T04:26:37.190Z,2.80
2019-02-06T04:29:06.804Z,2.80
2019-02-06T04:31:36.815Z,2.90
2019-02-06T04:34:06.704Z,2.90
2019-02-06T04:36:36.537Z,2.90
2019-02-06T04:39:08.736Z,2.90
2019-02-06T04:41:39.023Z,2.90
2019-02-06T04:44:09.259Z,2.90
2019-02-06T04:46:38.800Z,2.90
2019-02-06T04:49:08.315Z,3.00
2019-02-06T04:51:37.815Z,3.00
2019-02-06T04:54:07.655Z,2.90
2019-02-06T04:56:37.672Z,2.90
2019-02-06T04:59:07.204Z,2.90
2019-02-06T05:01:36.700Z,2.90
2019-02-06T05:04:06.462Z,2.90
2019-02-06T05:06:36.259Z,2.90
2019-02-06T05:09:08.527Z,2.90
2019-02-06T05:11:38.456Z,2.90
2019-02-06T05:14:08.080Z,2.90
2019-02-06T05:16:37.591Z,2.90
2019-02-06T05:19:07.156Z,2.90
2019-02-06T05:21:37.214Z,2.90
2019-02-06T05:24:06.817Z,2.90
2019-02-06T05:26:36.749Z,2.90
2019-02-06T05:29:06.574Z,2.90
2019-02-06T05:31:36.213Z,2.90
2019-02-06T05:34:05.964Z,2.80
2019-02-06T05:36:35.536Z,2.80
2019-02-06T05:39:07.845Z,2.80
2019-02-06T05:41:37.509Z,2.80
2019-02-06T05:44:07.019Z,2.80
2019-02-06T05:46:37.077Z,2.70
2019-02-06T05:49:06.819Z,2.70
2019-02-06T05:51:36.337Z,2.70
2019-02-06T05:54:06.409Z,2.70
2019-02-06T05:56:36.567Z,2.60
2019-02-06T05:59:06.222Z,2.60
2019-02-06T06:01:35.955Z,2.50
2019-02-06T06:04:06.332Z,2.50
2019-02-06T06:06:35.995Z,2.40
2019-02-06T06:09:08.631Z,2.40
2019-02-06T06:11:38.536Z,2.30
2019-02-06T06:14:08.216Z,2.30
2019-02-06T06:16:37.766Z,2.30
2019-02-06T06:19:07.278Z,2.30
2019-02-06T06:21:36.928Z,2.30
2019-02-06T06:24:09.086Z,2.20
2019-02-06T06:26:37.785Z,2.20
2019-02-06T06:29:07.471Z,2.20
2019-02-06T06:31:37.144Z,2.20
2019-02-06T06:34:07.165Z,2.10
2019-02-06T06:36:36.810Z,2.10
2019-02-06T06:39:08.708Z,2.10
2019-02-06T06:41:38.725Z,2.20
2019-02-06T06:44:08.503Z,2.20
2019-02-06T06:46:38.345Z,2.20
2019-02-06T06:49:08.051Z,2.10
2019-02-06T06:51:38.286Z,2.10
2019-02-06T06:54:07.985Z,2.10
2019-02-06T06:56:37.812Z,2.10
2019-02-06T06:59:07.492Z,2.10
2019-02-06T07:01:37.248Z,2.20
2019-02-06T07:04:07.021Z,2.20
2019-02-06T07:06:37.312Z,2.20
2019-02-06T07:09:09.631Z,2.30
2019-02-06T07:11:39.317Z,2.30
2019-02-06T07:14:09.320Z,2.30
2019-02-06T07:16:38.987Z,2.40
2019-02-06T07:19:08.682Z,2.50
2019-02-06T07:21:38.553Z,2.60
2019-02-06T07:24:08.885Z,2.70
2019-02-06T07:26:38.955Z,2.80
2019-02-06T07:29:09.014Z,2.80
2019-02-06T07:31:38.549Z,2.90
2019-02-06T07:34:08.438Z,2.90
2019-02-06T07:36:38.043Z,2.90
2019-02-06T07:39:09.221Z,3.00
2019-02-06T07:41:39.693Z,3.00
2019-02-06T07:44:09.227Z,3.00
2019-02-06T07:46:38.866Z,3.10
2019-02-06T07:49:08.552Z,3.10
2019-02-06T07:51:38.324Z,3.20
2019-02-06T07:54:08.106Z,3.30
2019-02-06T07:56:37.691Z,3.40
2019-02-06T07:59:07.201Z,3.50
2019-02-06T08:01:36.951Z,3.50
2019-02-06T08:04:06.571Z,3.60
2019-02-06T08:06:36.195Z,3.60
2019-02-06T08:09:09.354Z,3.70
2019-02-06T08:11:39.450Z,3.70
2019-02-06T08:14:09.131Z,3.70
2019-02-06T08:16:39.553Z,3.70
2019-02-06T08:19:09.285Z,3.70
2019-02-06T08:21:39.004Z,3.80
2019-02-06T08:24:08.733Z,3.80
2019-02-06T08:26:38.480Z,3.80
2019-02-06T08:29:08.293Z,3.90
2019-02-06T08:31:38.007Z,4.00
2019-02-06T08:34:07.779Z,4.00
2019-02-06T08:36:37.468Z,4.10
2019-02-06T08:39:09.667Z,4.10
2019-02-06T08:41:39.377Z,4.20
2019-02-06T08:44:09.150Z,4.30
2019-02-06T08:46:39.124Z,4.30
2019-02-06T08:49:10.898Z,4.40
2019-02-06T08:51:40.020Z,4.50
2019-02-06T08:54:09.511Z,4.60
2019-02-06T08:56:39.105Z,4.70
2019-02-06T08:59:08.894Z,4.80
2019-02-06T09:01:38.601Z,4.90
2019-02-06T09:04:08.100Z,4.90
2019-02-06T09:06:38.005Z,5.00
2019-02-06T09:09:11.564Z,5.00
2019-02-06T09:11:41.109Z,5.00
2019-02-06T09:14:10.755Z,5.00
2019-02-06T09:16:40.680Z,5.00
2019-02-06T09:19:10.368Z,5.00
2019-02-06T09:21:40.008Z,5.10
2019-02-06T09:24:09.654Z,5.10
2019-02-06T09:26:39.313Z,5.00
2019-02-06T09:29:09.036Z,5.00
2019-02-06T09:31:38.889Z,5.00
2019-02-06T09:34:09.733Z,5.00
2019-02-06T09:36:39.513Z,5.00
2019-02-06T09:39:11.981Z,5.00
2019-02-06T09:41:41.677Z,5.10
2019-02-06T09:44:11.203Z,5.20
2019-02-06T09:46:41.151Z,5.20
2019-02-06T09:49:11.021Z,5.20
2019-02-06T09:51:40.724Z,5.20
2019-02-06T09:54:10.602Z,5.20
2019-02-06T09:56:40.392Z,5.20
2019-02-06T09:59:09.988Z,5.20
2019-02-06T10:01:39.565Z,5.20
2019-02-06T10:04:09.139Z,5.20
2019-02-06T10:06:38.628Z,5.20
2019-02-06T10:09:09.393Z,5.20
2019-02-06T10:11:39.050Z,5.20
2019-02-06T10:14:08.818Z,5.20
2019-02-06T10:16:38.400Z,5.20
2019-02-06T10:19:08.091Z,5.30
2019-02-06T10:21:38.169Z,5.30
2019-02-06T10:24:07.895Z,5.30
2019-02-06T10:26:37.641Z,5.30
2019-02-06T10:29:07.858Z,5.30
2019-02-06T10:31:37.536Z,5.30
2019-02-06T10:34:07.516Z,5.30
2019-02-06T10:36:37.240Z,5.30
2019-02-06T10:39:09.374Z,5.30
2019-02-06T10:41:38.861Z,5.30
2019-02-06T10:44:08.697Z,5.40
2019-02-06T10:46:38.213Z,5.40
2019-02-06T10:49:08.417Z,5.40
2019-02-06T10:51:38.347Z,5.40
2019-02-06T10:54:07.949Z,5.40
2019-02-06T10:56:38.628Z,5.30
2019-02-06T10:59:08.097Z,5.20
2019-02-06T11:01:37.648Z,5.10
2019-02-06T11:04:07.266Z,5.10
2019-02-06T11:06:36.764Z,5.10
2019-02-06T11:09:08.826Z,5.10
2019-02-06T11:11:38.330Z,5.10
2019-02-06T11:14:07.955Z,5.20
2019-02-06T11:16:37.461Z,5.20
2019-02-06T11:19:06.975Z,5.20
2019-02-06T11:21:37.923Z,5.30
2019-02-06T11:24:07.441Z,5.30
2019-02-06T11:26:36.985Z,5.20
2019-02-06T11:29:06.920Z,5.20
2019-02-06T11:31:36.411Z,5.20
2019-02-06T11:34:05.927Z,5.30
2019-02-06T11:36:36.317Z,5.30
2019-02-06T11:39:12.796Z,5.30
2019-02-06T11:41:42.433Z,5.40
2019-02-06T11:44:11.985Z,5.40
2019-02-06T11:46:41.560Z,5.40
2019-02-06T11:49:11.913Z,5.50
2019-02-06T11:51:41.484Z,5.50
2019-02-06T11:54:11.035Z,5.50
2019-02-06T11:56:40.656Z,5.40
2019-02-06T11:59:10.347Z,5.30
2019-02-06T12:01:43.999Z,5.30
2019-02-06T12:04:13.591Z,5.20
2019-02-06T12:06:43.352Z,5.20
2019-02-06T12:09:14.070Z,5.10
2019-02-06T12:11:43.660Z,5.20
2019-02-06T12:14:13.453Z,5.20
2019-02-06T12:16:42.958Z,5.30
2019-02-06T12:19:12.743Z,5.30
2019-02-06T12:21:42.326Z,5.40
2019-02-06T12:24:11.874Z,5.50
2019-02-06T12:26:41.762Z,5.50
2019-02-06T12:29:11.800Z,5.50
2019-02-06T12:31:41.280Z,5.40
2019-02-06T12:34:10.789Z,5.50
2019-02-06T12:36:40.508Z,5.50
2019-02-06T12:39:10.860Z,5.50
2019-02-06T12:41:40.382Z,5.50
2019-02-06T12:44:09.916Z,5.50
2019-02-06T12:46:39.454Z,5.50
2019-02-06T12:49:09.000Z,5.40
2019-02-06T12:51:38.506Z,5.50
2019-02-06T12:54:08.156Z,5.40
2019-02-06T12:56:38.553Z,5.40
2019-02-06T12:59:08.077Z,5.40
2019-02-06T13:01:37.673Z,5.40
2019-02-06T13:04:07.170Z,5.40
2019-02-06T13:06:36.692Z,5.50
2019-02-06T13:09:09.909Z,5.50
2019-02-06T13:11:39.410Z,5.40
2019-02-06T13:14:08.984Z,5.40
2019-02-06T13:16:38.492Z,5.40
2019-02-06T13:19:08.038Z,5.40
2019-02-06T13:21:37.976Z,5.30
2019-02-06T13:24:07.512Z,5.30
2019-02-06T13:26:37.130Z,5.30
2019-02-06T13:29:06.724Z,5.30
2019-02-06T13:31:36.288Z,5.30
2019-02-06T13:34:05.819Z,5.30
2019-02-06T13:36:35.770Z,5.20
2019-02-06T13:39:10.293Z,5.20
2019-02-06T13:41:40.194Z,5.20
2019-02-06T13:44:09.680Z,5.20
2019-02-06T13:46:39.632Z,5.20
2019-02-06T13:49:09.150Z,5.20
2019-02-06T13:51:38.678Z,5.20
2019-02-06T13:54:08.374Z,5.20
2019-02-06T13:56:37.957Z,5.20
2019-02-06T13:59:07.505Z,5.30
2019-02-06T14:01:38.019Z,5.20
2019-02-06T14:04:07.584Z,5.20
2019-02-06T14:06:37.091Z,5.20
2019-02-06T14:09:22.136Z,5.30
2019-02-06T14:11:42.675Z,5.30
2019-02-06T14:14:12.958Z,5.30
2019-02-06T14:16:42.970Z,5.20
2019-02-06T14:19:12.503Z,5.20
2019-02-06T14:21:42.056Z,5.20
2019-02-06T14:24:35.955Z,5.20
2019-02-06T14:27:31.165Z,5.20
2019-02-06T14:30:37.448Z,5.20
2019-02-06T14:33:54.195Z,5.30
2019-02-06T14:36:53.005Z,5.30
2019-02-06T14:39:32.784Z,5.30
2019-02-06T14:42:31.140Z,5.30
2019-02-06T14:45:34.492Z,5.40
2019-02-06T14:48:41.756Z,5.40
2019-02-06T14:52:19.760Z,5.40
2019-02-06T14:55:20.410Z,5.40
2019-02-06T14:58:30.020Z,5.50
2019-02-06T15:01:34.890Z,5.40
2019-02-06T15:04:40.236Z,5.50
2019-02-06T15:07:34.453Z,5.60
2019-02-06T15:10:46.889Z,5.60
2019-02-06T15:13:53.708Z,5.60
2019-02-06T15:17:28.444Z,5.60
2019-02-06T15:20:22.579Z,5.60
2019-02-06T15:23:14.989Z,5.60
2019-02-06T15:26:18.732Z,5.60
2019-02-06T15:29:10.456Z,5.50
2019-02-06T15:32:25.860Z,5.50
2019-02-06T15:35:32.717Z,5.50
2019-02-06T15:38:49.454Z,5.50
2019-02-06T15:41:58.891Z,5.50
2019-02-06T15:44:47.364Z,5.50
2019-02-06T15:47:58.299Z,5.50
2019-02-06T15:51:18.605Z,5.50
2019-02-06T15:54:23.957Z,5.50
2019-02-06T15:57:32.609Z,5.50
2019-02-06T16:00:41.743Z,5.50
2019-02-06T16:04:33.387Z,5.50
2019-02-06T16:08:01.992Z,5.50
2019-02-06T16:11:17.812Z,5.50
2019-02-06T16:14:30.450Z,5.50
2019-02-06T16:17:38.776Z,5.50
2019-02-06T16:20:43.924Z,5.50
2019-02-06T16:23:38.485Z,5.50
2019-02-06T16:26:50.263Z,5.40
2019-02-06T16:29:37.480Z,5.40
2019-02-06T16:32:31.482Z,5.40
2019-02-06T16:35:30.752Z,5.40
2019-02-06T16:38:47.843Z,5.40
2019-02-06T16:42:04.548Z,5.40
2019-02-06T16:45:13.966Z,5.40
2019-02-06T16:48:19.438Z,5.40
2019-02-06T16:51:13.085Z,5.40
2019-02-06T16:54:24.690Z,5.40
2019-02-06T16:57:18.973Z,5.40
2019-02-06T17:00:31.342Z,5.40
2019-02-06T17:03:26.867Z,5.40
2019-02-06T17:06:31.132Z,5.40
2019-02-06T17:09:47.311Z,5.40
2019-02-06T17:13:07.381Z,5.40
2019-02-06T17:16:24.196Z,5.30
2019-02-06T17:19:50.025Z,5.30
2019-02-06T17:22:44.385Z,5.30
2019-02-06T17:25:43.304Z,5.30
2019-02-06T17:28:38.514Z,5.40
2019-02-06T17:31:50.623Z,5.40
2019-02-06T17:34:45.203Z,5.40
2019-02-06T17:37:30.114Z,5.50
2019-02-06T17:40:31.376Z,5.50
2019-02-06T17:43:47.521Z,5.60
2019-02-06T17:47:16.802Z,5.60
2019-02-06T17:50:43.028Z,5.60
2019-02-06T17:53:46.483Z,5.60
2019-02-06T17:56:17.319Z,5.70
2019-02-06T17:58:46.878Z,5.70
2019-02-06T18:01:26.832Z,5.80
2019-02-06T18:04:02.995Z,5.70
2019-02-06T18:06:32.512Z,5.70
2019-02-06T18:09:04.388Z,5.70
2019-02-06T18:11:34.471Z,5.80
2019-02-06T18:14:04.276Z,5.80
2019-02-06T18:16:33.804Z,5.80
2019-02-06T18:19:03.287Z,5.70
2019-02-06T18:21:33.325Z,5.70
2019-02-06T18:24:02.830Z,5.70
2019-02-06T18:26:32.686Z,5.70
2019-02-06T18:29:04.283Z,5.70
2019-02-06T18:31:33.918Z,5.70
2019-02-06T18:34:06.765Z,5.70
2019-02-06T18:36:36.699Z,5.70
2019-02-06T18:39:11.694Z,5.70
2019-02-06T18:41:41.944Z,5.70
2019-02-06T18:44:11.562Z,5.70
2019-02-06T18:46:41.141Z,5.70
2019-02-06T18:49:11.230Z,5.70
2019-02-06T18:51:42.487Z,5.70
2019-02-06T18:54:12.322Z,5.70
2019-02-06T18:56:41.896Z,5.70
2019-02-06T18:59:11.919Z,5.70
2019-02-06T19:01:41.850Z,5.70
2019-02-06T19:04:14.795Z,5.70
2019-02-06T19:06:44.334Z,5.70
2019-02-06T19:09:17.675Z,5.70
2019-02-06T19:11:47.254Z,5.70
2019-02-06T19:14:17.204Z,5.70
2019-02-06T19:16:47.111Z,5.60
2019-02-06T19:19:25.006Z,5.60
2019-02-06T19:21:48.462Z,5.60
2019-02-06T19:24:18.000Z,5.60
2019-02-06T19:26:47.525Z,5.60
2019-02-06T19:29:17.647Z,5.60
2019-02-06T19:31:47.481Z,5.60
2019-02-06T19:34:17.458Z,5.60
2019-02-06T19:36:47.345Z,5.60
2019-02-06T19:39:17.249Z,5.50
2019-02-06T19:41:46.927Z,5.50
2019-02-06T19:44:16.486Z,5.50
2019-02-06T19:46:46.576Z,5.50
2019-02-06T19:49:16.127Z,5.50
2019-02-06T19:51:45.636Z,5.50
2019-02-06T19:54:15.241Z,5.50
2019-02-06T19:56:44.769Z,5.50
2019-02-06T19:59:14.283Z,5.50
2019-02-06T20:01:44.224Z,5.50
2019-02-06T20:04:14.316Z,5.50
2019-02-06T20:06:44.058Z,5.50
2019-02-06T20:09:14.471Z,5.50
2019-02-06T20:11:44.039Z,5.50
2019-02-06T20:14:13.584Z,5.50
2019-02-06T20:16:43.109Z,5.50
2019-02-06T20:19:12.687Z,5.40
2019-02-06T20:21:42.547Z,5.50
2019-02-06T20:24:12.174Z,5.50
2019-02-06T20:26:41.697Z,5.40
2019-02-06T20:29:11.750Z,5.40
2019-02-06T20:31:41.276Z,5.40
2019-02-06T20:34:10.764Z,5.40
2019-02-06T20:36:40.683Z,5.40
2019-02-06T20:39:10.379Z,5.40
2019-02-06T20:41:39.863Z,5.40
2019-02-06T20:44:09.446Z,5.40
2019-02-06T20:46:38.961Z,5.40
2019-02-06T20:49:08.505Z,5.40
2019-02-06T20:51:38.204Z,5.40
2019-02-06T20:54:08.610Z,5.40
2019-02-06T20:56:38.156Z,5.30
2019-02-06T20:59:07.671Z,5.40
2019-02-06T21:01:37.155Z,5.40
2019-02-06T21:04:06.686Z,5.30
2019-02-06T21:06:36.211Z,5.30
2019-02-06T21:09:13.997Z,5.30
2019-02-06T21:11:43.465Z,5.30
2019-02-06T21:14:13.338Z,5.30
2019-02-06T21:16:43.224Z,5.30
2019-02-06T21:19:12.812Z,5.30
2019-02-06T21:21:42.325Z,5.30
2019-02-06T21:24:12.150Z,5.30
2019-02-06T21:26:44.332Z,5.30
2019-02-06T21:29:12.861Z,5.20
2019-02-06T21:31:42.698Z,5.20
2019-02-06T21:34:12.189Z,5.20
2019-02-06T21:36:41.713Z,5.20
2019-02-06T21:39:12.227Z,5.20
2019-02-06T21:41:41.772Z,5.30
2019-02-06T21:44:11.330Z,5.30
2019-02-06T21:46:40.972Z,5.40
2019-02-06T21:49:10.540Z,5.40
2019-02-06T21:51:40.040Z,5.40
2019-02-06T21:54:09.565Z,5.40
2019-02-06T21:56:39.033Z,5.40
2019-02-06T21:59:08.557Z,5.40
2019-02-06T22:01:38.102Z,5.50
2019-02-06T22:04:07.633Z,5.50
2019-02-06T22:06:37.139Z,5.50
2019-02-06T22:09:11.108Z,5.60
2019-02-06T22:11:40.632Z,5.60
2019-02-06T22:14:10.458Z,5.60
2019-02-06T22:16:40.275Z,5.60
2019-02-06T22:19:10.132Z,5.60
2019-02-06T22:21:40.145Z,5.60
2019-02-06T22:24:09.635Z,5.60
2019-02-06T22:26:39.150Z,5.60
2019-02-06T22:29:08.993Z,5.60
2019-02-06T22:31:38.495Z,5.60
2019-02-06T22:34:08.826Z,5.70
2019-02-06T22:36:38.360Z,5.60
2019-02-06T22:39:11.948Z,5.60
2019-02-06T22:41:41.481Z,5.60
2019-02-06T22:44:10.969Z,5.60
2019-02-06T22:46:40.448Z,5.60
2019-02-06T22:49:10.301Z,5.60
2019-02-06T22:51:40.105Z,5.60
2019-02-06T22:54:09.645Z,5.60
2019-02-06T22:56:41.133Z,5.60
2019-02-06T22:59:10.449Z,5.70
2019-02-06T23:02:00.148Z,5.70
2019-02-06T23:04:29.676Z,5.70
2019-02-06T23:06:59.318Z,5.70
2019-02-06T23:09:29.100Z,5.60
2019-02-06T23:11:58.699Z,5.70
2019-02-06T23:14:28.632Z,5.70
2019-02-06T23:16:58.535Z,5.70
2019-02-06T23:19:28.071Z,5.70
2019-02-06T23:21:57.565Z,5.70
2019-02-06T23:24:27.124Z,5.70
2019-02-06T23:26:56.631Z,5.70
2019-02-06T23:29:26.191Z,5.60
2019-02-06T23:31:55.671Z,5.60
2019-02-06T23:34:25.188Z,5.60
2019-02-06T23:36:54.739Z,5.60
2019-02-06T23:39:24.644Z,5.60
2019-02-06T23:41:55.120Z,5.60
2019-02-06T23:44:29.036Z,5.60
2019-02-06T23:46:56.358Z,5.60
2019-02-06T23:49:26.354Z,5.60
2019-02-06T23:51:56.000Z,5.60
2019-02-06T23:54:25.508Z,5.60
2019-02-06T23:56:55.809Z,5.60
2019-02-06T23:59:25.305Z,5.60
